• Join FlightAware (Why Join?)
  • Login
  • US Flag 
01:35AM EDT


 

Airport Tracker/Info


-or-


 

Live Flight TrackerFlight Track Log ✈ GLA154 ✈ 22-Apr-2013 ✈ KPRC - KPRC

Flight Track Log - Related Links

Times and Time Zones

All times are in EDT time to prevent confusion due to time zone crossing. See the GLA154 flight status page for this flight to view local times or setup timezone preferences in your user account.

Time Position Orientation Groundspeed Altitude Reporting Facility
EDT Latitude Longitude Course Direction KTS MPH feet Rate Location/Type
09:49AM 34.6319 -112.4492 312° West 183 211 6,000  Level Albuquerque Center
09:50AM 34.6686 -112.4753 330° Northwest 186 214 7,500 1,560 Climbing Albuquerque Center
09:51AM 34.7156 -112.5192 322° Northwest 177 204 9,200 1,320 Climbing Albuquerque Center
09:52AM 34.7614 -112.5539 328° Northwest 189 217 10,300 1,020 Climbing Albuquerque Center
09:53AM 34.7867 -112.6144 297° West 200 230 11,300 840 Climbing Albuquerque Center
09:54AM 34.8122 -112.6775 296° West 206 237 12,100 840 Climbing Albuquerque Center
09:55AM 34.9918 -112.7779 312° West  Level FlightAware Approximate
09:55AM 34.8375 -112.7397 296° West 206 237 13,100  Level Albuquerque Center
09:56AM 34.8639 -112.8011 298° West 205 236 13,900 420 Climbing Albuquerque Center
09:57AM 34.8917 -112.8675 297° West 214 246 14,000  Climbing Albuquerque Center
09:58AM 34.9161 -112.9414 292° West 230 265 14,000  Level Albuquerque Center
09:59AM 34.9456 -113.0156 296° West 239 275 14,000 -120 Level Albuquerque Center
10:00AM 34.9736 -113.0886 295° West 238 274 13,800  Descending Albuquerque Center
10:01AM 35.0058 -113.1775 294° West 238 274 14,100 180 Climbing Albuquerque Center
10:02AM 35.0328 -113.2506 294° West 236 272 14,200  Climbing Albuquerque Center
10:03AM 35.0614 -113.3233 296° West 236 272 14,200 -60 Level Albuquerque Center
10:04AM 35.0925 -113.3944 298° West 237 273 14,100 -120 Descending Albuquerque Center
10:05AM 35.1000 -113.4094 301° West 238 274 14,100  Level Los Angeles Center
10:06AM 35.1367 -113.4972 297° West 241 277 14,100 60 Level Los Angeles Center
10:07AM 35.1669 -113.5675 298° West 235 270 14,300  Climbing Los Angeles Center
10:08AM 35.1914 -113.6189 300° West 225 259 14,200 -60 Descending Los Angeles Center
10:09AM 35.2419 -113.5606 43° Northeast 261 300 14,200 -60 Level Los Angeles Center
10:10AM 35.2072 -113.4817 118° Southeast 267 307 14,100 -60 Descending Los Angeles Center
10:11AM 35.1697 -113.4008 120° Southeast 272 313 14,100 -60 Level Los Angeles Center
10:12AM 35.1339 -113.3186 118° Southeast 275 316 14,000  Descending Los Angeles Center
10:13AM 35.1022 -113.2533 121° Southeast 277 319 14,200  Climbing Albuquerque Center
10:14AM 35.0639 -113.1686 119° Southeast 285 328 14,100 -60 Descending Albuquerque Center
10:15AM 35.0256 -113.0867 120° Southeast 284 327 14,100  Level Albuquerque Center
10:16AM 34.9881 -113.0064 120° Southeast 279 321 14,100  Level Albuquerque Center
10:17AM 34.9444 -112.9092 119° Southeast 275 316 14,100 -120 Level Albuquerque Center
10:18AM 34.9042 -112.8328 123° Southeast 271 312 13,900 -540 Descending Albuquerque Center
10:19AM 34.8622 -112.7547 123° Southeast 276 318 13,100 -1,140 Descending Albuquerque Center
10:20AM 34.8339 -112.6628 111° Southeast 288 331 11,600 -1,620 Descending Albuquerque Center
10:21AM 34.8000 -112.5167 106° East 284 327 9,000 -1,500 Descending Phoenix TRACON
10:22AM 34.7847 -112.4825 119° Southeast 281 323 8,600 -840 Descending Albuquerque Center
10:23AM 34.7564 -112.4094 115° Southeast 253 291 7,700 -1,140 Descending Albuquerque Center
10:24AM 34.7025 -112.3753 152° Southeast 194 223 6,300 -1,200 Descending Albuquerque Center
10:25AM 34.6675 -112.4072 217° Southwest 173 199 5,300 -1,020 Descending Albuquerque Center